createdAt,value
2018-04-06T00:00:39.171Z,18.70
2018-04-06T00:01:39.164Z,16.20
2018-04-06T00:02:39.152Z,16.30
2018-04-06T00:03:39.185Z,14.10
2018-04-06T00:04:39.153Z,14.80
2018-04-06T00:05:39.125Z,9.90
2018-04-06T00:06:39.126Z,13.10
2018-04-06T00:07:39.105Z,11.80
2018-04-06T00:08:39.097Z,16.90
2018-04-06T00:09:39.092Z,13.40
2018-04-06T00:10:39.082Z,11.70
2018-04-06T00:11:39.068Z,10.80
2018-04-06T00:12:39.062Z,13.50
2018-04-06T00:13:39.050Z,15.30
2018-04-06T00:14:39.042Z,11.70
2018-04-06T00:15:39.033Z,12.90
2018-04-06T00:16:39.022Z,13.00
2018-04-06T00:17:39.055Z,14.70
2018-04-06T00:18:39.006Z,12.30
2018-04-06T00:19:38.996Z,15.40
2018-04-06T00:20:38.986Z,12.30
2018-04-06T00:21:38.977Z,12.30
2018-04-06T00:22:38.967Z,13.20
2018-04-06T00:23:38.957Z,13.80
2018-04-06T00:24:38.951Z,12.90
2018-04-06T00:25:38.939Z,12.70
2018-04-06T00:26:38.930Z,12.30
2018-04-06T00:27:38.925Z,14.30
2018-04-06T00:28:38.917Z,12.40
2018-04-06T00:29:38.905Z,13.00
2018-04-06T00:30:38.895Z,12.80
2018-04-06T00:31:38.895Z,13.60
2018-04-06T00:32:38.874Z,13.50
2018-04-06T00:33:38.866Z,15.40
2018-04-06T00:34:38.854Z,15.10
2018-04-06T00:35:38.845Z,13.90
2018-04-06T00:36:38.852Z,13.40
2018-04-06T00:37:38.838Z,10.70
2018-04-06T00:38:38.817Z,13.80
2018-04-06T00:39:38.807Z,12.60
2018-04-06T00:40:38.798Z,13.30
2018-04-06T00:41:38.789Z,15.90
2018-04-06T00:42:38.779Z,13.40
2018-04-06T00:43:38.769Z,18.00
2018-04-06T00:44:38.780Z,15.00
2018-04-06T00:45:38.754Z,13.40
2018-04-06T00:46:38.742Z,14.90
2018-04-06T00:47:38.732Z,14.00
2018-04-06T00:48:38.724Z,16.00
2018-04-06T00:49:38.713Z,13.70
2018-04-06T00:50:38.704Z,15.20
2018-04-06T00:51:38.693Z,16.90
2018-04-06T00:52:38.707Z,17.50
2018-04-06T00:53:38.679Z,16.70
2018-04-06T00:54:38.667Z,17.60
2018-04-06T00:55:38.657Z,15.40
2018-04-06T00:56:38.648Z,15.80
2018-04-06T00:57:38.638Z,14.40
2018-04-06T00:58:38.629Z,13.90
2018-04-06T00:59:38.618Z,15.50
2018-04-06T01:00:38.625Z,12.20
2018-04-06T01:01:38.600Z,13.20
2018-04-06T01:02:38.589Z,13.50
2018-04-06T01:03:38.580Z,13.40
2018-04-06T01:04:38.571Z,15.80
2018-04-06T01:05:38.563Z,16.50
2018-04-06T01:06:38.553Z,14.50
2018-04-06T01:07:38.543Z,14.10
2018-04-06T01:08:38.557Z,14.80
2018-04-06T01:09:38.524Z,16.50
2018-04-06T01:10:38.515Z,15.10
2018-04-06T01:11:38.506Z,14.60
2018-04-06T01:12:38.496Z,14.10
2018-04-06T01:13:38.486Z,13.30
2018-04-06T01:14:38.478Z,15.70
2018-04-06T01:15:38.466Z,15.20
2018-04-06T01:16:38.477Z,14.70
2018-04-06T01:17:38.450Z,13.70
2018-04-06T01:18:38.440Z,14.40
2018-04-06T01:19:38.431Z,14.70
2018-04-06T01:20:38.420Z,15.80
2018-04-06T01:21:38.410Z,18.00
2018-04-06T01:22:38.402Z,14.80
2018-04-06T01:23:38.390Z,11.90
2018-04-06T01:24:38.384Z,16.70
2018-04-06T01:25:38.375Z,15.20
2018-04-06T01:26:38.364Z,14.40
2018-04-06T01:27:38.354Z,13.80
2018-04-06T01:28:38.394Z,12.40
2018-04-06T01:29:38.335Z,15.00
2018-04-06T01:30:38.328Z,14.00
2018-04-06T01:31:38.318Z,13.60
2018-04-06T01:32:38.575Z,18.60
2018-04-06T01:33:38.298Z,12.50
2018-04-06T01:34:38.288Z,10.70
2018-04-06T01:35:38.279Z,16.00
2018-04-06T01:36:38.269Z,13.20
2018-04-06T01:37:38.263Z,15.50
2018-04-06T01:38:38.252Z,14.30
2018-04-06T01:39:38.241Z,12.70
2018-04-06T01:40:38.254Z,12.80
2018-04-06T01:41:38.224Z,16.50
2018-04-06T01:42:38.216Z,12.30
2018-04-06T01:43:38.210Z,15.20
2018-04-06T01:44:38.195Z,15.00
2018-04-06T01:45:38.189Z,13.10
2018-04-06T01:46:38.179Z,14.40
2018-04-06T01:47:38.170Z,14.40
2018-04-06T01:48:38.175Z,14.30
2018-04-06T01:49:38.150Z,16.00
2018-04-06T01:50:38.142Z,14.60
2018-04-06T01:51:38.382Z,15.20
2018-04-06T01:52:38.124Z,15.10
2018-04-06T01:53:38.113Z,15.30
2018-04-06T01:54:38.104Z,15.60
2018-04-06T01:55:38.095Z,12.10
2018-04-06T01:56:38.373Z,15.60
2018-04-06T01:57:38.077Z,16.80
2018-04-06T01:58:38.071Z,15.90
2018-04-06T01:59:38.059Z,16.00
2018-04-06T02:00:38.051Z,14.00
2018-04-06T02:01:38.046Z,13.30
2018-04-06T02:02:38.032Z,13.90
2018-04-06T02:03:38.023Z,14.50
2018-04-06T02:04:38.015Z,13.20
2018-04-06T02:05:38.006Z,12.30
2018-04-06T02:06:37.997Z,12.30
2018-04-06T02:07:37.991Z,14.10
2018-04-06T02:08:37.993Z,15.20
2018-04-06T02:09:37.968Z,13.40
2018-04-06T02:10:37.959Z,16.00
2018-04-06T02:11:37.954Z,16.10
2018-04-06T02:12:38.394Z,15.50
2018-04-06T02:13:37.938Z,14.90
2018-04-06T02:14:37.940Z,13.40
2018-04-06T02:15:37.914Z,14.90
2018-04-06T02:16:37.908Z,15.60
2018-04-06T02:17:37.900Z,16.20
2018-04-06T02:18:37.894Z,15.60
2018-04-06T02:19:37.879Z,15.70
2018-04-06T02:20:37.886Z,10.10
2018-04-06T02:21:37.860Z,13.20
2018-04-06T02:22:37.862Z,13.30
2018-04-06T02:23:37.842Z,13.80
2018-04-06T02:24:37.844Z,14.40
2018-04-06T02:25:37.825Z,14.50
2018-04-06T02:26:37.815Z,12.40
2018-04-06T02:27:37.806Z,13.30
2018-04-06T02:28:37.822Z,12.30
2018-04-06T02:29:37.787Z,14.60
2018-04-06T02:30:37.781Z,13.00
2018-04-06T02:31:37.770Z,13.70
2018-04-06T02:32:37.764Z,15.00
2018-04-06T02:33:37.759Z,16.50
2018-04-06T02:34:37.743Z,15.60
2018-04-06T02:35:37.734Z,14.70
2018-04-06T02:36:37.757Z,15.30
2018-04-06T02:37:37.722Z,12.10
2018-04-06T02:38:37.708Z,15.80
2018-04-06T02:39:37.698Z,10.60
2018-04-06T02:40:37.713Z,16.40
2018-04-06T02:41:37.683Z,10.10
2018-04-06T02:42:37.670Z,12.90
2018-04-06T02:43:37.698Z,16.10
2018-04-06T02:44:38.005Z,17.90
2018-04-06T02:45:37.642Z,16.30
2018-04-06T02:46:37.632Z,12.50
2018-04-06T02:47:37.621Z,13.50
2018-04-06T02:48:37.614Z,14.40
2018-04-06T02:49:37.606Z,13.60
2018-04-06T02:50:37.598Z,16.40
2018-04-06T02:51:37.592Z,15.60
2018-04-06T02:52:37.767Z,18.20
2018-04-06T02:53:37.568Z,15.20
2018-04-06T02:54:37.559Z,15.70
2018-04-06T02:55:37.550Z,15.50
2018-04-06T02:56:37.540Z,16.10
2018-04-06T02:57:37.530Z,14.00
2018-04-06T02:58:37.521Z,17.40
2018-04-06T02:59:37.513Z,13.60
2018-04-06T03:00:38.011Z,15.20
2018-04-06T03:01:37.499Z,14.30
2018-04-06T03:02:37.485Z,13.80
2018-04-06T03:03:37.728Z,14.70
2018-04-06T03:04:37.466Z,14.30
2018-04-06T03:05:37.456Z,13.10
2018-04-06T03:06:37.450Z,14.40
2018-04-06T03:07:37.437Z,15.00
2018-04-06T03:08:37.684Z,14.30
2018-04-06T03:09:37.417Z,13.60
2018-04-06T03:10:37.418Z,14.10
2018-04-06T03:11:37.399Z,15.30
2018-04-06T03:12:37.389Z,16.30
2018-04-06T03:13:37.381Z,18.40
2018-04-06T03:14:37.371Z,18.30
2018-04-06T03:15:37.365Z,16.10
2018-04-06T03:16:37.352Z,14.30
2018-04-06T03:17:37.344Z,14.90
2018-04-06T03:18:37.334Z,14.90
2018-04-06T03:19:37.324Z,12.20
2018-04-06T03:20:37.314Z,15.70
2018-04-06T03:21:37.305Z,16.20
2018-04-06T03:22:37.295Z,16.50
2018-04-06T03:23:37.284Z,13.10
2018-04-06T03:24:37.276Z,20.50
2018-04-06T03:25:37.267Z,18.90
2018-04-06T03:26:37.258Z,15.60
2018-04-06T03:27:37.247Z,20.00
2018-04-06T03:28:37.238Z,17.90
2018-04-06T03:29:37.231Z,14.20
2018-04-06T03:30:37.219Z,14.30
2018-04-06T03:31:37.211Z,18.10
2018-04-06T03:32:37.202Z,16.40
2018-04-06T03:33:37.190Z,17.20
2018-04-06T03:34:37.180Z,18.20
2018-04-06T03:35:37.170Z,16.50
2018-04-06T03:36:37.162Z,18.80
2018-04-06T03:37:37.153Z,22.70
2018-04-06T03:38:37.143Z,18.70
2018-04-06T04:39:46.038Z,27.00
2018-04-06T04:40:45.779Z,27.50
2018-04-06T04:41:45.768Z,23.30
2018-04-06T04:42:45.760Z,24.80
2018-04-06T04:43:45.757Z,24.60
2018-04-06T04:44:45.738Z,21.10
2018-04-06T04:45:45.733Z,22.90
2018-04-06T04:46:45.808Z,22.60
2018-04-06T04:47:45.709Z,20.80
2018-04-06T04:48:45.699Z,19.10
2018-04-06T04:49:45.689Z,21.20
2018-04-06T04:50:45.680Z,21.30
2018-04-06T04:51:45.671Z,21.40
2018-04-06T04:52:45.661Z,24.20
2018-04-06T04:53:45.648Z,21.70
2018-04-06T04:54:45.640Z,21.50
2018-04-06T04:55:45.636Z,22.30
2018-04-06T04:56:45.620Z,24.40
2018-04-06T04:57:45.609Z,21.00
2018-04-06T04:58:45.600Z,23.00
2018-04-06T04:59:45.590Z,20.20
2018-04-06T05:00:45.584Z,19.10
2018-04-06T05:01:45.569Z,18.80
2018-04-06T06:22:45.027Z,13.00
2018-04-06T06:23:45.018Z,11.90
2018-04-06T06:24:45.011Z,14.30
2018-04-06T06:25:45.004Z,13.20
2018-04-06T06:26:44.998Z,11.20
2018-04-06T06:27:44.991Z,12.10
2018-04-06T06:28:44.982Z,11.80
2018-04-06T06:29:44.978Z,11.60
2018-04-06T06:30:44.970Z,12.10
2018-04-06T06:31:44.963Z,14.20
2018-04-06T06:32:44.956Z,10.50
2018-04-06T06:33:44.952Z,11.30
2018-04-06T06:34:44.944Z,12.10
2018-04-06T06:35:44.936Z,11.40
2018-04-06T06:36:44.931Z,11.70
2018-04-06T06:37:44.923Z,14.10
2018-04-06T06:38:44.916Z,14.00
2018-04-06T06:39:44.911Z,12.40
2018-04-06T06:40:44.905Z,11.90
2018-04-06T06:41:44.902Z,11.40
2018-04-06T06:42:44.894Z,10.70
2018-04-06T06:43:44.885Z,9.80
2018-04-06T06:44:44.882Z,12.70
2018-04-06T06:45:44.875Z,11.10
2018-04-06T06:46:44.871Z,12.50
2018-04-06T06:47:44.864Z,10.30
2018-04-06T06:48:44.858Z,10.30
2018-04-06T06:49:44.852Z,12.10
2018-04-06T06:50:45.051Z,13.60
2018-04-06T06:52:53.217Z,11.90
2018-04-06T06:53:53.210Z,9.00
2018-04-06T06:54:53.210Z,12.70
2018-04-06T06:55:53.196Z,10.40
2018-04-06T06:59:19.026Z,10.20
2018-04-06T07:00:18.872Z,9.60
2018-04-06T07:01:18.865Z,7.50
2018-04-06T07:02:18.859Z,10.20
2018-04-06T07:03:18.856Z,9.70
2018-04-06T07:04:18.893Z,7.80
2018-04-06T07:05:18.846Z,9.30
2018-04-06T07:06:18.841Z,12.40
2018-04-06T07:07:18.870Z,9.30
2018-04-06T07:08:18.867Z,9.40
2018-04-06T07:09:18.831Z,11.50
2018-04-06T07:10:18.822Z,9.10
2018-04-06T07:11:18.820Z,10.60
2018-04-06T07:12:18.814Z,10.00
2018-04-06T07:13:18.810Z,9.10
2018-04-06T07:14:18.803Z,10.70
2018-04-06T07:15:18.802Z,11.10
2018-04-06T07:16:18.796Z,10.40
2018-04-06T07:17:18.791Z,10.40
2018-04-06T07:18:18.787Z,13.50
2018-04-06T07:19:18.787Z,13.50
2018-04-06T07:20:18.782Z,10.80
2018-04-06T07:24:28.691Z,12.20
2018-04-06T07:29:42.889Z,11.20
2018-04-06T07:30:39.258Z,11.50
2018-04-06T07:32:41.957Z,10.40
2018-04-06T07:33:31.693Z,12.10
2018-04-06T07:34:31.695Z,9.00
2018-04-06T07:35:32.907Z,10.80
2018-04-06T07:36:31.694Z,10.80
2018-04-06T07:38:29.141Z,12.00
2018-04-06T07:40:11.555Z,11.30
2018-04-06T07:41:11.553Z,12.40
2018-04-06T07:48:43.894Z,13.60
2018-04-06T07:49:43.893Z,13.00
2018-04-06T07:55:03.149Z,12.70
2018-04-06T07:56:02.899Z,9.40
2018-04-06T07:57:02.971Z,13.20
2018-04-06T07:58:02.904Z,11.40
2018-04-06T08:00:28.040Z,12.60
2018-04-06T08:01:30.566Z,10.20
2018-04-06T08:04:20.246Z,13.40
2018-04-06T08:05:17.627Z,13.00
2018-04-06T08:07:20.390Z,9.00
2018-04-06T08:08:20.090Z,14.90
2018-04-06T08:11:04.955Z,10.30
2018-04-06T08:12:04.957Z,9.50
2018-04-06T08:13:05.567Z,12.20
2018-04-06T08:18:13.813Z,10.40
2018-04-06T08:23:51.861Z,9.20
2018-04-06T08:30:55.379Z,10.90
2018-04-06T09:05:39.213Z,10.00
2018-04-06T09:06:39.209Z,7.90
2018-04-06T09:07:39.203Z,11.20
2018-04-06T10:19:48.427Z,5.80
2018-04-06T10:33:54.826Z,6.20
2018-04-06T10:43:12.759Z,5.90
2018-04-06T10:47:28.540Z,5.40
2018-04-06T10:50:59.235Z,5.40
2018-04-06T10:55:11.021Z,4.60
2018-04-06T10:58:02.433Z,5.40
2018-04-06T10:59:02.431Z,5.60
2018-04-06T11:00:44.845Z,5.30
2018-04-06T11:03:39.708Z,5.00
2018-04-06T11:09:31.089Z,6.50
2018-04-06T11:10:31.085Z,5.70
2018-04-06T11:14:56.773Z,6.50
2018-04-06T11:21:12.454Z,5.50
2018-04-06T11:25:23.230Z,5.50
2018-04-06T11:32:39.842Z,4.20
2018-04-06T11:35:22.253Z,5.10
2018-04-06T11:36:22.251Z,5.20
2018-04-06T11:37:22.249Z,8.50
2018-04-06T11:38:22.245Z,7.30
2018-04-06T11:42:33.020Z,9.40
2018-04-06T11:45:00.520Z,5.90
2018-04-06T11:46:47.938Z,7.50
2018-04-06T11:47:47.936Z,8.10
2018-04-06T11:48:47.935Z,5.40
2018-04-06T11:49:47.938Z,6.40
2018-04-06T11:50:47.934Z,6.20
2018-04-06T11:51:47.939Z,7.90
2018-04-06T11:52:47.931Z,4.70
2018-04-06T11:53:47.935Z,5.10
2018-04-06T11:54:47.934Z,5.40
2018-04-06T11:55:47.932Z,4.20
2018-04-06T11:56:47.932Z,6.60
2018-04-06T11:57:47.932Z,4.70
2018-04-06T11:58:47.931Z,5.40
2018-04-06T11:59:47.947Z,6.10
2018-04-06T12:00:47.932Z,5.30
2018-04-06T12:01:47.933Z,4.90
2018-04-06T12:02:47.934Z,6.30
2018-04-06T12:03:47.931Z,4.70
2018-04-06T12:04:47.932Z,4.60
2018-04-06T12:05:47.933Z,4.50
2018-04-06T12:06:47.933Z,4.60
2018-04-06T12:07:47.969Z,5.70
2018-04-06T12:08:48.035Z,5.20
2018-04-06T12:09:47.933Z,5.10
2018-04-06T12:10:47.933Z,7.70
2018-04-06T12:11:47.935Z,5.00
2018-04-06T12:12:47.934Z,5.20
2018-04-06T12:13:47.934Z,6.40
2018-04-06T12:14:47.935Z,7.00
2018-04-06T12:15:47.936Z,3.90
2018-04-06T12:16:47.984Z,4.40
2018-04-06T12:17:47.936Z,5.70
2018-04-06T12:18:47.937Z,5.40
2018-04-06T12:24:01.930Z,6.70
2018-04-06T12:25:01.937Z,5.00
2018-04-06T12:26:01.931Z,4.80
2018-04-06T12:27:01.934Z,3.50
2018-04-06T12:28:01.935Z,3.90
2018-04-06T12:29:01.934Z,6.00
2018-04-06T12:30:01.943Z,5.60
2018-04-06T12:31:01.938Z,4.80
2018-04-06T12:32:01.946Z,4.50
2018-04-06T12:33:01.938Z,4.60
2018-04-06T12:34:01.941Z,4.50
2018-04-06T12:35:01.943Z,5.40
2018-04-06T12:36:01.949Z,6.10
2018-04-06T12:37:01.944Z,5.70
2018-04-06T12:38:01.946Z,6.10
2018-04-06T12:39:01.949Z,4.50
2018-04-06T12:40:01.950Z,4.40
2018-04-06T12:41:01.951Z,5.40
2018-04-06T12:48:41.719Z,4.30
2018-04-06T12:50:26.560Z,4.60
2018-04-06T12:51:27.382Z,4.30
2018-04-06T12:53:35.818Z,4.30
2018-04-06T12:54:35.824Z,2.20
2018-04-06T12:57:45.758Z,2.80
2018-04-06T12:59:33.191Z,3.90
2018-04-06T13:00:33.198Z,4.10
2018-04-06T13:01:33.203Z,3.80
2018-04-06T13:03:40.676Z,4.20
2018-04-06T13:04:43.305Z,3.90
2018-04-06T13:06:40.761Z,2.30
2018-04-06T13:10:08.867Z,2.90
2018-04-06T13:13:44.606Z,3.70
2018-04-06T13:28:01.881Z,3.10
2018-04-06T13:29:04.100Z,2.90
2018-04-06T13:30:05.325Z,3.70
2018-04-06T13:49:53.474Z,4.30
2018-04-06T13:54:35.122Z,4.40
2018-04-06T13:57:12.657Z,4.20
2018-04-06T14:03:54.184Z,3.00
2018-04-06T14:04:56.811Z,3.50
2018-04-06T14:06:56.821Z,3.40
2018-04-06T14:08:41.835Z,4.40
2018-04-06T14:18:35.544Z,4.60
2018-04-06T14:19:38.172Z,3.20
2018-04-06T14:20:38.421Z,4.20
2018-04-06T14:22:48.038Z,3.70
2018-04-06T14:29:38.497Z,4.60
2018-04-06T14:38:23.335Z,3.00
2018-04-06T14:42:28.375Z,2.90
2018-04-06T14:43:28.374Z,4.40
2018-04-06T14:44:28.369Z,3.90
2018-04-06T14:57:24.733Z,2.60
2018-04-06T14:59:12.159Z,4.80
2018-04-06T15:00:12.157Z,3.50
2018-04-06T15:03:37.857Z,5.90
2018-04-06T15:04:37.857Z,4.70
2018-04-06T15:05:37.856Z,4.50
2018-04-06T15:06:37.856Z,4.70
2018-04-06T15:07:37.861Z,3.00
2018-04-06T15:21:28.260Z,4.50
2018-04-06T15:23:25.704Z,2.60
2018-04-06T15:24:25.701Z,4.30
2018-04-06T15:25:25.765Z,3.00
2018-04-06T15:30:34.743Z,4.80
2018-04-06T15:34:00.374Z,4.10
2018-04-06T15:35:00.385Z,3.50
2018-04-06T15:38:26.071Z,3.30
2018-04-06T15:40:28.520Z,3.10
2018-04-06T15:41:28.523Z,3.60
2018-04-06T15:42:28.535Z,3.70
2018-04-06T15:43:28.521Z,3.30
2018-04-06T15:44:28.533Z,3.20
2018-04-06T15:45:28.519Z,4.00
2018-04-06T15:46:28.518Z,4.00
2018-04-06T15:47:28.519Z,3.70
2018-04-06T15:48:28.578Z,3.80
2018-04-06T15:49:28.517Z,3.70
2018-04-06T15:50:28.518Z,4.70
2018-04-06T15:51:28.528Z,3.20
2018-04-06T15:52:28.516Z,4.00
2018-04-06T15:53:28.516Z,4.30
2018-04-06T15:54:28.516Z,3.20
2018-04-06T15:55:31.119Z,1.80
2018-04-06T15:56:28.518Z,4.50
2018-04-06T15:57:28.515Z,3.80
2018-04-06T15:58:28.514Z,4.30
2018-04-06T15:59:28.512Z,2.90
2018-04-06T16:00:28.513Z,3.40
2018-04-06T16:01:28.513Z,3.50
2018-04-06T16:02:28.512Z,3.30
2018-04-06T16:03:28.512Z,4.60
2018-04-06T16:04:28.511Z,4.90
2018-04-06T16:05:28.511Z,3.40
2018-04-06T16:06:28.510Z,4.00
2018-04-06T16:07:28.513Z,4.60
2018-04-06T16:08:28.509Z,3.30
2018-04-06T16:09:28.508Z,2.80
2018-04-06T16:10:28.508Z,4.90
2018-04-06T16:11:28.508Z,3.50
2018-04-06T16:12:28.510Z,2.20
2018-04-06T16:13:28.509Z,3.00
2018-04-06T16:14:28.506Z,4.00
2018-04-06T16:15:28.507Z,3.60
2018-04-06T16:16:28.504Z,3.30
2018-04-06T16:17:28.503Z,4.40
2018-04-06T16:18:28.540Z,2.90
2018-04-06T16:19:28.502Z,3.50
2018-04-06T16:20:28.527Z,4.00
2018-04-06T16:21:28.501Z,4.00
2018-04-06T16:22:28.500Z,4.40
2018-04-06T16:23:28.500Z,4.80
2018-04-06T16:24:28.497Z,3.60
2018-04-06T16:25:28.501Z,4.00
2018-04-06T16:26:28.501Z,4.60
2018-04-06T16:27:28.498Z,3.80
2018-04-06T16:28:28.497Z,3.80
2018-04-06T16:29:28.495Z,3.10
2018-04-06T16:30:28.494Z,5.50
2018-04-06T16:31:28.498Z,2.20
2018-04-06T16:32:28.493Z,3.70
2018-04-06T16:33:28.492Z,4.70
2018-04-06T16:34:28.491Z,3.80
2018-04-06T16:35:28.491Z,2.70
2018-04-06T16:36:28.490Z,3.00
2018-04-06T16:37:28.490Z,3.40
2018-04-06T16:38:28.489Z,3.90
2018-04-06T16:39:28.487Z,3.20
2018-04-06T16:40:28.486Z,3.60
2018-04-06T16:41:28.483Z,3.00
2018-04-06T16:42:28.488Z,4.00
2018-04-06T16:43:28.483Z,4.40
2018-04-06T16:44:28.480Z,3.80
2018-04-06T16:45:28.479Z,4.80
2018-04-06T16:46:28.479Z,2.80
2018-04-06T16:47:28.479Z,4.30
2018-04-06T16:48:28.477Z,3.80
2018-04-06T16:49:28.476Z,4.50
2018-04-06T16:50:28.475Z,3.60
2018-04-06T16:51:28.475Z,3.80
2018-04-06T16:52:28.473Z,3.20
2018-04-06T20:25:17.609Z,6.60
2018-04-06T20:26:17.606Z,4.40
2018-04-06T20:27:17.603Z,4.30
2018-04-06T20:28:17.637Z,4.40
2018-04-06T20:29:17.595Z,4.00
2018-04-06T20:30:17.590Z,3.40
2018-04-06T20:31:17.586Z,2.60
2018-04-06T20:32:17.581Z,3.10
2018-04-06T20:33:17.578Z,5.40
2018-04-06T20:34:17.776Z,4.30
2018-04-06T20:35:17.571Z,2.90
2018-04-06T20:36:17.567Z,2.90
2018-04-06T20:55:12.733Z,3.60
2018-04-06T20:58:48.431Z,2.70
2018-04-06T20:59:48.629Z,3.90
2018-04-06T21:10:07.213Z,4.30
2018-04-06T21:11:07.209Z,4.60
2018-04-06T21:14:32.912Z,3.90
2018-04-06T21:15:32.987Z,4.70
2018-04-06T21:16:32.882Z,3.90
2018-04-06T21:17:32.878Z,5.20
2018-04-06T21:18:32.875Z,3.90
2018-04-06T21:19:32.872Z,4.20
2018-04-06T21:20:32.865Z,4.80
2018-04-06T21:21:32.861Z,3.90
2018-04-06T21:22:32.857Z,5.00
2018-04-06T21:45:54.557Z,4.10
2018-04-06T21:46:54.553Z,4.40
2018-04-06T21:47:54.549Z,4.30
2018-04-06T21:48:54.545Z,4.60
2018-04-06T21:49:54.540Z,4.30
2018-04-06T21:50:54.535Z,5.20
2018-04-06T21:51:54.532Z,4.20
2018-04-06T21:52:54.526Z,4.10
2018-04-06T21:53:54.523Z,5.50
2018-04-06T21:54:54.518Z,4.90
2018-04-06T21:55:54.513Z,5.40
2018-04-06T21:56:54.510Z,5.00
2018-04-06T21:57:54.505Z,5.90
2018-04-06T21:58:54.500Z,5.90
2018-04-06T21:59:54.495Z,6.60
2018-04-06T22:00:54.491Z,5.30
2018-04-06T22:01:54.487Z,6.30
2018-04-06T22:02:54.480Z,5.00
2018-04-06T22:03:54.477Z,6.40
2018-04-06T22:04:54.472Z,5.60
2018-04-06T22:05:54.469Z,6.20
2018-04-06T22:06:54.464Z,5.50
2018-04-06T22:07:54.459Z,6.60
2018-04-06T22:08:54.455Z,5.20
2018-04-06T22:09:54.459Z,7.10
2018-04-06T22:10:54.447Z,7.10
2018-04-06T22:11:54.444Z,5.80
2018-04-06T22:12:54.436Z,5.30
2018-04-06T22:13:54.432Z,5.50
2018-04-06T22:14:54.427Z,5.90
2018-04-06T22:15:54.426Z,5.10
2018-04-06T22:16:54.418Z,5.60
2018-04-06T22:17:54.413Z,6.90
2018-04-06T22:18:54.407Z,6.20
2018-04-06T22:19:54.403Z,6.10
2018-04-06T22:20:54.398Z,5.80
2018-04-06T22:21:54.394Z,5.90
2018-04-06T22:22:54.389Z,6.60
2018-04-06T22:23:54.383Z,5.90
2018-04-06T22:24:54.380Z,6.30
2018-04-06T22:25:54.379Z,6.10
2018-04-06T22:26:54.370Z,6.90
2018-04-06T22:27:54.367Z,4.50
2018-04-06T22:28:54.361Z,7.30
2018-04-06T22:29:54.356Z,5.60
2018-04-06T22:30:54.353Z,5.00
2018-04-06T22:31:54.345Z,5.40
2018-04-06T22:32:54.342Z,4.90
2018-04-06T22:33:54.336Z,5.80
2018-04-06T22:34:54.331Z,6.40
2018-04-06T22:35:54.325Z,5.10
2018-04-06T22:36:54.322Z,6.90
2018-04-06T22:37:54.316Z,7.00
2018-04-06T22:38:54.311Z,7.30
2018-04-06T22:39:54.306Z,7.40
2018-04-06T22:40:54.302Z,4.60
2018-04-06T22:41:54.296Z,5.10
2018-04-06T22:42:54.291Z,5.90
2018-04-06T22:43:54.286Z,5.30
2018-04-06T22:44:54.282Z,5.10
2018-04-06T22:45:54.282Z,5.20
2018-04-06T22:46:54.271Z,5.40
2018-04-06T22:47:54.267Z,5.30
2018-04-06T22:48:54.262Z,5.30
2018-04-06T22:49:54.256Z,7.40
2018-04-06T23:14:59.209Z,6.20
2018-04-06T23:15:59.215Z,5.80
2018-04-06T23:16:59.196Z,6.80
2018-04-06T23:17:59.190Z,8.00
2018-04-06T23:18:59.185Z,7.50
2018-04-06T23:19:59.184Z,5.50
2018-04-06T23:20:59.177Z,5.30
2018-04-06T23:21:59.169Z,7.60
2018-04-06T23:22:59.163Z,4.80
2018-04-06T23:23:59.158Z,6.40
2018-04-06T23:24:59.154Z,6.20
2018-04-06T23:25:59.152Z,5.70
2018-04-06T23:26:59.142Z,5.80
2018-04-06T23:27:59.136Z,5.40
2018-04-06T23:28:59.131Z,7.50
2018-04-06T23:29:59.126Z,6.20
2018-04-06T23:30:59.122Z,8.30
2018-04-06T23:31:59.120Z,5.60
2018-04-06T23:32:59.111Z,6.20
2018-04-06T23:33:59.106Z,5.80
2018-04-06T23:34:59.115Z,5.00
2018-04-06T23:35:59.095Z,6.20
2018-04-06T23:36:59.089Z,6.00
2018-04-06T23:37:59.086Z,5.40
2018-04-06T23:38:59.084Z,5.80
2018-04-06T23:39:59.074Z,7.60
2018-04-06T23:40:59.071Z,6.50
2018-04-06T23:41:59.064Z,6.50
2018-04-06T23:42:59.058Z,6.80
2018-04-06T23:43:59.053Z,6.60
2018-04-06T23:44:59.050Z,5.80
2018-04-06T23:45:59.047Z,7.30
2018-04-06T23:46:59.040Z,6.70
2018-04-06T23:47:59.035Z,6.10
2018-04-06T23:48:59.027Z,5.80
2018-04-06T23:49:59.022Z,5.90
2018-04-06T23:50:59.017Z,6.10
2018-04-06T23:51:59.014Z,5.30
2018-04-06T23:52:59.006Z,7.00
2018-04-06T23:53:59.001Z,5.40
2018-04-06T23:54:58.995Z,4.70
2018-04-06T23:55:58.989Z,6.30
2018-04-06T23:56:58.985Z,5.40
2018-04-06T23:57:58.979Z,8.10
2018-04-06T23:58:58.977Z,5.30
2018-04-06T23:59:58.968Z,6.70
